sensor_id;sensor_type;location;lat;lon;timestamp;pressure;altitude;pressure_sealevel;temperature;humidity
1776;BME280;885;42.626;23.200;2023-10-19T00:00:47;167183.03;;;7.49;100.00
1776;BME280;885;42.626;23.200;2023-10-19T00:03:16;167181.63;;;7.49;100.00
1776;BME280;885;42.626;23.200;2023-10-19T00:05:43;167205.03;;;7.57;100.00
1776;BME280;885;42.626;23.200;2023-10-19T00:08:11;167200.91;;;7.56;100.00
1776;BME280;885;42.626;23.200;2023-10-19T00:10:41;167165.13;;;7.43;100.00
1776;BME280;885;42.626;23.200;2023-10-19T00:13:09;167184.41;;;7.50;100.00
1776;BME280;885;42.626;23.200;2023-10-19T00:15:38;167155.53;;;7.39;100.00
1776;BME280;885;42.626;23.200;2023-10-19T00:18:07;167136.25;;;7.32;100.00
1776;BME280;885;42.626;23.200;2023-10-19T00:20:47;167075.72;;;7.10;100.00
1776;BME280;885;42.626;23.200;2023-10-19T00:23:26;167099.06;;;7.18;100.00
1776;BME280;885;42.626;23.200;2023-10-19T00:25:56;167114.22;;;7.24;100.00
1776;BME280;885;42.626;23.200;2023-10-19T00:28:23;167136.25;;;7.32;100.00
1776;BME280;885;42.626;23.200;2023-10-19T00:30:51;167134.84;;;7.32;100.00
1776;BME280;885;42.626;23.200;2023-10-19T00:33:18;167133.47;;;7.31;100.00
1776;BME280;885;42.626;23.200;2023-10-19T00:35:47;167099.06;;;7.18;100.00
1776;BME280;885;42.626;23.200;2023-10-19T00:38:23;167093.56;;;7.16;100.00
1776;BME280;885;42.626;23.200;2023-10-19T00:41:08;167059.19;;;7.04;100.00
1776;BME280;885;42.626;23.200;2023-10-19T00:43:45;167044.06;;;6.98;100.00
1776;BME280;885;42.626;23.200;2023-10-19T00:46:16;167039.97;;;6.97;100.00
1776;BME280;885;42.626;23.200;2023-10-19T00:48:53;167026.19;;;6.92;100.00
1776;BME280;885;42.626;23.200;2023-10-19T00:51:22;166995.91;;;6.81;100.00
1776;BME280;885;42.626;23.200;2023-10-19T00:53:58;167000.06;;;6.82;100.00
1776;BME280;885;42.626;23.200;2023-10-19T00:56:31;166973.91;;;6.73;100.00
1776;BME280;885;42.626;23.200;2023-10-19T00:58:58;166939.53;;;6.60;100.00
1776;BME280;885;42.626;23.200;2023-10-19T01:01:33;166961.53;;;6.68;100.00
1776;BME280;885;42.626;23.200;2023-10-19T01:04:09;166939.53;;;6.60;100.00
1776;BME280;885;42.626;23.200;2023-10-19T01:06:39;166945.03;;;6.62;100.00
1776;BME280;885;42.626;23.200;2023-10-19T01:09:09;166939.53;;;6.60;100.00
1776;BME280;885;42.626;23.200;2023-10-19T01:11:39;166957.44;;;6.67;100.00
1776;BME280;885;42.626;23.200;2023-10-19T01:14:18;166957.44;;;6.67;100.00
1776;BME280;885;42.626;23.200;2023-10-19T01:16:45;166947.81;;;6.63;100.00
1776;BME280;885;42.626;23.200;2023-10-19T01:19:13;166953.31;;;6.65;100.00
1776;BME280;885;42.626;23.200;2023-10-19T01:21:44;166928.53;;;6.56;100.00
1776;BME280;885;42.626;23.200;2023-10-19T01:24:18;166962.91;;;6.69;100.00
1776;BME280;885;42.626;23.200;2023-10-19T01:26:52;166984.91;;;6.77;100.00
1776;BME280;885;42.626;23.200;2023-10-19T01:29:22;166993.19;;;6.80;100.00
1776;BME280;885;42.626;23.200;2023-10-19T01:31:52;166989.09;;;6.78;100.00
1776;BME280;885;42.626;23.200;2023-10-19T01:34:21;167009.69;;;6.86;100.00
1776;BME280;885;42.626;23.200;2023-10-19T01:36:48;167017.97;;;6.89;100.00
1776;BME280;885;42.626;23.200;2023-10-19T01:39:16;167023.47;;;6.91;100.00
1776;BME280;885;42.626;23.200;2023-10-19T01:41:45;167038.56;;;6.96;100.00
1776;BME280;885;42.626;23.200;2023-10-19T01:44:12;167048.19;;;7.00;100.00
1776;BME280;885;42.626;23.200;2023-10-19T01:46:41;167037.19;;;6.96;100.00
1776;BME280;885;42.626;23.200;2023-10-19T01:49:09;167015.19;;;6.88;100.00
1776;BME280;885;42.626;23.200;2023-10-19T01:51:36;167042.69;;;6.98;100.00
1776;BME280;885;42.626;23.200;2023-10-19T01:54:04;167005.56;;;6.84;100.00
1776;BME280;885;42.626;23.200;2023-10-19T01:56:31;166991.81;;;6.79;100.00
1776;BME280;885;42.626;23.200;2023-10-19T01:59:00;167006.97;;;6.85;100.00
1776;BME280;885;42.626;23.200;2023-10-19T02:01:26;167019.28;;;6.89;100.00
1776;BME280;885;42.626;23.200;2023-10-19T02:03:56;167033.06;;;6.94;100.00
1776;BME280;885;42.626;23.200;2023-10-19T02:06:25;167033.06;;;6.94;100.00
1776;BME280;885;42.626;23.200;2023-10-19T02:09:05;167015.19;;;6.88;100.00
1776;BME280;885;42.626;23.200;2023-10-19T02:11:42;166998.69;;;6.82;100.00
1776;BME280;885;42.626;23.200;2023-10-19T02:14:13;167019.28;;;6.89;100.00
1776;BME280;885;42.626;23.200;2023-10-19T02:16:40;167013.78;;;6.87;100.00
1776;BME280;885;42.626;23.200;2023-10-19T02:19:06;167019.28;;;6.89;100.00
1776;BME280;885;42.626;23.200;2023-10-19T02:21:33;167017.97;;;6.89;100.00
1776;BME280;885;42.626;23.200;2023-10-19T02:24:05;167006.97;;;6.85;100.00
1776;BME280;885;42.626;23.200;2023-10-19T02:26:33;166987.69;;;6.78;100.00
1776;BME280;885;42.626;23.200;2023-10-19T02:28:59;166954.69;;;6.66;100.00
1776;BME280;885;42.626;23.200;2023-10-19T02:31:27;166918.94;;;6.53;100.00
1776;BME280;885;42.626;23.200;2023-10-19T02:33:56;166923.06;;;6.54;100.00
1776;BME280;885;42.626;23.200;2023-10-19T02:36:25;166934.03;;;6.58;100.00
1776;BME280;885;42.626;23.200;2023-10-19T02:38:54;166979.41;;;6.75;100.00
1776;BME280;885;42.626;23.200;2023-10-19T02:41:24;166982.19;;;6.76;100.00
1776;BME280;885;42.626;23.200;2023-10-19T02:43:52;166957.44;;;6.67;100.00
1776;BME280;885;42.626;23.200;2023-10-19T02:46:28;166917.56;;;6.52;100.00
1776;BME280;885;42.626;23.200;2023-10-19T02:48:55;166938.22;;;6.60;100.00
1776;BME280;885;42.626;23.200;2023-10-19T02:51:22;166924.44;;;6.55;100.00
1776;BME280;885;42.626;23.200;2023-10-19T02:53:49;166931.31;;;6.57;100.00
1776;BME280;885;42.626;23.200;2023-10-19T02:56:15;166917.56;;;6.52;100.00
1776;BME280;885;42.626;23.200;2023-10-19T02:58:45;166905.16;;;6.48;100.00
1776;BME280;885;42.626;23.200;2023-10-19T03:01:15;166892.78;;;6.43;100.00
1776;BME280;885;42.626;23.200;2023-10-19T03:03:49;166901.06;;;6.46;100.00
1776;BME280;885;42.626;23.200;2023-10-19T03:06:18;166880.47;;;6.38;100.00
1776;BME280;885;42.626;23.200;2023-10-19T03:08:47;166865.31;;;6.33;100.00
1776;BME280;885;42.626;23.200;2023-10-19T03:11:13;166851.59;;;6.28;100.00
1776;BME280;885;42.626;23.200;2023-10-19T03:13:41;166863.97;;;6.32;100.00
1776;BME280;885;42.626;23.200;2023-10-19T03:16:08;166868.06;;;6.34;100.00
1776;BME280;885;42.626;23.200;2023-10-19T03:18:35;166880.47;;;6.38;100.00
1776;BME280;885;42.626;23.200;2023-10-19T03:21:03;166894.19;;;6.43;100.00
1776;BME280;885;42.626;23.200;2023-10-19T03:23:30;166885.94;;;6.40;100.00
1776;BME280;885;42.626;23.200;2023-10-19T03:25:59;166877.69;;;6.37;100.00
1776;BME280;885;42.626;23.200;2023-10-19T03:28:46;166874.97;;;6.36;100.00
1776;BME280;885;42.626;23.200;2023-10-19T03:31:16;166901.06;;;6.46;100.00
1776;BME280;885;42.626;23.200;2023-10-19T03:33:44;166929.94;;;6.57;100.00
1776;BME280;885;42.626;23.200;2023-10-19T03:36:14;166954.69;;;6.66;100.00
1776;BME280;885;42.626;23.200;2023-10-19T03:38:41;166968.41;;;6.71;100.00
1776;BME280;885;42.626;23.200;2023-10-19T03:41:09;166989.09;;;6.78;100.00
1776;BME280;885;42.626;23.200;2023-10-19T03:43:36;166989.09;;;6.78;100.00
1776;BME280;885;42.626;23.200;2023-10-19T03:46:05;167012.47;;;6.87;100.00
1776;BME280;885;42.626;23.200;2023-10-19T03:48:39;167034.47;;;6.95;100.00
1776;BME280;885;42.626;23.200;2023-10-19T03:51:06;167042.69;;;6.98;100.00
1776;BME280;885;42.626;23.200;2023-10-19T03:53:38;167064.69;;;7.06;100.00
1776;BME280;885;42.626;23.200;2023-10-19T03:56:14;167082.56;;;7.12;100.00
1776;BME280;885;42.626;23.200;2023-10-19T03:58:43;167085.34;;;7.13;100.00
1776;BME280;885;42.626;23.200;2023-10-19T04:01:13;167092.22;;;7.16;100.00
1776;BME280;885;42.626;23.200;2023-10-19T04:03:42;167099.06;;;7.18;100.00
1776;BME280;885;42.626;23.200;2023-10-19T04:06:09;167086.72;;;7.14;100.00
1776;BME280;885;42.626;23.200;2023-10-19T04:08:41;167103.22;;;7.20;100.00
1776;BME280;885;42.626;23.200;2023-10-19T04:11:10;167092.22;;;7.16;100.00
1776;BME280;885;42.626;23.200;2023-10-19T04:13:47;167127.97;;;7.29;100.00
1776;BME280;885;42.626;23.200;2023-10-19T04:16:18;167137.63;;;7.33;100.00
1776;BME280;885;42.626;23.200;2023-10-19T04:18:45;167127.97;;;7.29;100.00
1776;BME280;885;42.626;23.200;2023-10-19T04:21:14;167137.63;;;7.33;100.00
1776;BME280;885;42.626;23.200;2023-10-19T04:23:42;167163.75;;;7.42;100.00
1776;BME280;885;42.626;23.200;2023-10-19T04:26:09;167161.03;;;7.41;100.00
1776;BME280;885;42.626;23.200;2023-10-19T04:28:40;167173.34;;;7.46;100.00
1776;BME280;885;42.626;23.200;2023-10-19T04:31:16;167159.63;;;7.41;100.00
1776;BME280;885;42.626;23.200;2023-10-19T04:33:44;167174.75;;;7.46;100.00
1776;BME280;885;42.626;23.200;2023-10-19T04:36:13;167177.53;;;7.47;100.00
1776;BME280;885;42.626;23.200;2023-10-19T04:38:42;167183.03;;;7.49;100.00
1776;BME280;885;42.626;23.200;2023-10-19T04:41:10;167166.53;;;7.43;100.00
1776;BME280;885;42.626;23.200;2023-10-19T04:43:38;167174.75;;;7.46;100.00
1776;BME280;885;42.626;23.200;2023-10-19T04:46:07;167167.84;;;7.44;100.00
1776;BME280;885;42.626;23.200;2023-10-19T04:48:37;167181.63;;;7.49;100.00
1776;BME280;885;42.626;23.200;2023-10-19T04:51:06;167169.25;;;7.44;100.00
1776;BME280;885;42.626;23.200;2023-10-19T04:53:34;167163.75;;;7.42;100.00
1776;BME280;885;42.626;23.200;2023-10-19T04:56:03;167143.13;;;7.35;100.00
1776;BME280;885;42.626;23.200;2023-10-19T04:58:30;167119.72;;;7.26;100.00
1776;BME280;885;42.626;23.200;2023-10-19T05:00:57;167112.84;;;7.23;100.00
1776;BME280;885;42.626;23.200;2023-10-19T05:03:25;167099.06;;;7.18;100.00
1776;BME280;885;42.626;23.200;2023-10-19T05:05:54;167089.44;;;7.15;100.00
1776;BME280;885;42.626;23.200;2023-10-19T05:08:25;167086.72;;;7.14;100.00
1776;BME280;885;42.626;23.200;2023-10-19T05:10:53;167108.72;;;7.22;100.00
1776;BME280;885;42.626;23.200;2023-10-19T05:13:24;167125.22;;;7.28;100.00
1776;BME280;885;42.626;23.200;2023-10-19T05:15:52;167127.97;;;7.29;100.00
1776;BME280;885;42.626;23.200;2023-10-19T05:18:19;167127.97;;;7.29;100.00
1776;BME280;885;42.626;23.200;2023-10-19T05:20:46;167110.13;;;7.22;100.00
1776;BME280;885;42.626;23.200;2023-10-19T05:23:13;167134.84;;;7.32;100.00
1776;BME280;885;42.626;23.200;2023-10-19T05:25:40;167159.63;;;7.41;100.00
1776;BME280;885;42.626;23.200;2023-10-19T05:28:07;167156.84;;;7.40;100.00
1776;BME280;885;42.626;23.200;2023-10-19T05:30:37;167180.25;;;7.48;100.00
1776;BME280;885;42.626;23.200;2023-10-19T05:33:04;167183.03;;;7.49;100.00
1776;BME280;885;42.626;23.200;2023-10-19T05:35:31;167188.53;;;7.51;100.00
1776;BME280;885;42.626;23.200;2023-10-19T05:38:00;167231.16;;;7.67;100.00
1776;BME280;885;42.626;23.200;2023-10-19T05:40:28;167251.81;;;7.74;100.00
1776;BME280;885;42.626;23.200;2023-10-19T05:42:56;167246.31;;;7.72;100.00
1776;BME280;885;42.626;23.200;2023-10-19T05:45:23;167273.84;;;7.82;100.00
1776;BME280;885;42.626;23.200;2023-10-19T05:47:53;167344.03;;;8.08;100.00
1776;BME280;885;42.626;23.200;2023-10-19T05:50:20;167388.09;;;8.24;100.00
1776;BME280;885;42.626;23.200;2023-10-19T05:52:47;167432.19;;;8.40;100.00
1776;BME280;885;42.626;23.200;2023-10-19T05:55:14;167474.88;;;8.56;100.00
1776;BME280;885;42.626;23.200;2023-10-19T05:57:41;167539.63;;;8.79;100.00
1776;BME280;885;42.626;23.200;2023-10-19T06:00:09;167609.84;;;9.05;100.00
1776;BME280;885;42.626;23.200;2023-10-19T06:02:40;167663.59;;;9.25;100.00
1776;BME280;885;42.626;23.200;2023-10-19T06:05:10;167678.72;;;9.30;100.00
1776;BME280;885;42.626;23.200;2023-10-19T06:07:37;167739.41;;;9.52;100.00
1776;BME280;885;42.626;23.200;2023-10-19T06:10:05;167783.47;;;9.69;100.00
1776;BME280;885;42.626;23.200;2023-10-19T06:12:32;167819.34;;;9.82;100.00
1776;BME280;885;42.626;23.200;2023-10-19T06:14:59;167881.34;;;10.04;100.00
1776;BME280;885;42.626;23.200;2023-10-19T06:17:26;167946.22;;;10.28;100.00
1776;BME280;885;42.626;23.200;2023-10-19T06:19:55;167986.22;;;10.43;100.00
1776;BME280;885;42.626;23.200;2023-10-19T06:22:23;168022.03;;;10.56;100.00
1776;BME280;885;42.626;23.200;2023-10-19T06:24:50;168051.00;;;10.66;100.00
1776;BME280;885;42.626;23.200;2023-10-19T06:27:17;168071.72;;;10.74;100.00
1776;BME280;885;42.626;23.200;2023-10-19T06:29:43;168111.72;;;10.88;100.00
1776;BME280;885;42.626;23.200;2023-10-19T06:32:10;168146.22;;;11.01;100.00
1776;BME280;885;42.626;23.200;2023-10-19T06:34:38;168175.19;;;11.11;100.00
1776;BME280;885;42.626;23.200;2023-10-19T06:37:05;168191.72;;;11.17;100.00
1776;BME280;885;42.626;23.200;2023-10-19T06:39:37;168219.31;;;11.28;100.00
1776;BME280;885;42.626;23.200;2023-10-19T06:42:06;168226.22;;;11.30;100.00
1776;BME280;885;42.626;23.200;2023-10-19T06:44:35;168235.88;;;11.34;100.00
1776;BME280;885;42.626;23.200;2023-10-19T06:47:03;168293.84;;;11.55;100.00
1776;BME280;885;42.626;23.200;2023-10-19T06:49:30;168343.63;;;11.73;100.00
1776;BME280;885;42.626;23.200;2023-10-19T06:51:57;168380.88;;;11.86;100.00
1776;BME280;885;42.626;23.200;2023-10-19T06:54:24;168028.06;;;11.94;100.00
1776;BME280;885;42.626;23.200;2023-10-19T06:56:54;168451.13;;;12.13;100.00
1776;BME280;885;42.626;23.200;2023-10-19T06:59:21;168498.25;;;12.29;100.00
1776;BME280;885;42.626;23.200;2023-10-19T07:01:49;168509.31;;;12.33;100.00
1776;BME280;885;42.626;23.200;2023-10-19T07:04:16;168113.47;;;12.26;100.00
1776;BME280;885;42.626;23.200;2023-10-19T07:06:43;166958.78;;;12.12;100.00
1776;BME280;885;42.626;23.200;2023-10-19T07:09:10;166969.72;;;12.16;100.00
1776;BME280;885;42.626;23.200;2023-10-19T07:11:36;166251.69;;;12.25;100.00
1776;BME280;885;42.626;23.200;2023-10-19T07:14:04;164444.56;;;12.45;100.00
1776;BME280;885;42.626;23.200;2023-10-19T07:16:33;163791.84;;;12.79;100.00
1776;BME280;885;42.626;23.200;2023-10-19T07:19:00;161594.16;;;12.92;100.00
1776;BME280;885;42.626;23.200;2023-10-19T07:21:27;160863.34;;;12.97;100.00
1776;BME280;885;42.626;23.200;2023-10-19T07:23:57;160871.25;;;13.00;100.00
1776;BME280;885;42.626;23.200;2023-10-19T07:26:26;159291.13;;;12.64;100.00
1776;BME280;885;42.626;23.200;2023-10-19T07:28:56;160051.47;;;12.71;100.00
1776;BME280;885;42.626;23.200;2023-10-19T07:31:25;159293.72;;;12.65;100.00
1776;BME280;885;42.626;23.200;2023-10-19T07:33:52;159319.81;;;12.75;100.00
1776;BME280;885;42.626;23.200;2023-10-19T07:36:21;159360.16;;;12.91;100.00
1776;BME280;885;42.626;23.200;2023-10-19T07:38:50;159361.47;;;12.92;100.00
1776;BME280;885;42.626;23.200;2023-10-19T07:41:17;158572.56;;;12.74;100.00
1776;BME280;885;42.626;23.200;2023-10-19T07:43:44;158546.66;;;12.64;100.00
1776;BME280;885;42.626;23.200;2023-10-19T07:46:10;158547.97;;;12.64;100.00
1776;BME280;885;42.626;23.200;2023-10-19T07:48:39;158147.97;;;12.53;100.00
1776;BME280;885;42.626;23.200;2023-10-19T07:51:08;156959.34;;;12.24;100.00
1776;BME280;885;42.626;23.200;2023-10-19T07:53:36;157356.25;;;12.34;100.00
1776;BME280;885;42.626;23.200;2023-10-19T07:56:03;156940.13;;;12.17;100.00
1776;BME280;885;42.626;23.200;2023-10-19T07:58:30;157696.59;;;12.22;100.00
1776;BME280;885;42.626;23.200;2023-10-19T08:00:57;158465.00;;;12.32;100.00
1776;BME280;885;42.626;23.200;2023-10-19T08:03:24;158492.22;;;12.43;100.00
1776;BME280;885;42.626;23.200;2023-10-19T08:05:52;159285.94;;;12.62;100.00
1776;BME280;885;42.626;23.200;2023-10-19T08:08:19;158984.50;;;12.90;100.00
1776;BME280;885;42.626;23.200;2023-10-19T08:10:50;158656.91;;;13.07;100.00
1776;BME280;885;42.626;23.200;2023-10-19T08:13:16;158652.97;;;13.05;100.00
1776;BME280;885;42.626;23.200;2023-10-19T08:15:43;157877.13;;;12.93;100.00
1776;BME280;885;42.626;23.200;2023-10-19T08:18:10;157895.19;;;13.00;100.00
1776;BME280;885;42.626;23.200;2023-10-19T08:20:37;157151.84;;;13.00;99.72
1776;BME280;885;42.626;23.200;2023-10-19T08:23:06;157944.28;;;13.19;100.00
1776;BME280;885;42.626;23.200;2023-10-19T08:25:33;158017.81;;;13.47;99.80
1776;BME280;885;42.626;23.200;2023-10-19T08:28:00;158121.06;;;13.88;98.66
1776;BME280;885;42.626;23.200;2023-10-19T08:30:27;157115.97;;;14.31;95.70
1776;BME280;885;42.626;23.200;2023-10-19T08:32:54;156105.69;;;14.74;92.41
1776;BME280;885;42.626;23.200;2023-10-19T08:35:24;152100.69;;;15.11;84.87
1776;BME280;885;42.626;23.200;2023-10-19T08:37:51;151047.38;;;15.37;84.75
1776;BME280;885;42.626;23.200;2023-10-19T08:40:20;149187.53;;;15.38;82.57
1776;BME280;885;42.626;23.200;2023-10-19T08:42:48;148459.81;;;15.45;82.94
1776;BME280;885;42.626;23.200;2023-10-19T08:45:16;148113.94;;;15.56;83.22
1776;BME280;885;42.626;23.200;2023-10-19T08:47:48;148851.53;;;15.53;86.38
1776;BME280;885;42.626;23.200;2023-10-19T08:50:21;147350.06;;;15.48;83.80
1776;BME280;885;42.626;23.200;2023-10-19T08:52:52;146624.66;;;15.56;82.85
1776;BME280;885;42.626;23.200;2023-10-19T08:55:21;145140.63;;;15.58;80.84
1776;BME280;885;42.626;23.200;2023-10-19T08:57:49;145144.19;;;15.60;82.08
1776;BME280;885;42.626;23.200;2023-10-19T09:00:17;145873.13;;;15.53;84.38
1776;BME280;885;42.626;23.200;2023-10-19T09:02:44;145463.13;;;15.37;85.73
1776;BME280;885;42.626;23.200;2023-10-19T09:05:11;145065.19;;;15.26;85.96
1776;BME280;885;42.626;23.200;2023-10-19T09:07:46;145445.38;;;15.30;86.74
1776;BME280;885;42.626;23.200;2023-10-19T09:10:22;145469.00;;;15.40;85.80
1776;BME280;885;42.626;23.200;2023-10-19T09:12:59;145938.34;;;15.81;83.68
1776;BME280;885;42.626;23.200;2023-10-19T09:15:27;145645.25;;;16.15;81.74
1776;BME280;885;42.626;23.200;2023-10-19T09:17:54;146428.38;;;16.31;82.99
1776;BME280;885;42.626;23.200;2023-10-19T09:20:21;145690.13;;;16.34;81.24
1776;BME280;885;42.626;23.200;2023-10-19T09:22:53;144977.91;;;16.48;79.14
1776;BME280;885;42.626;23.200;2023-10-19T09:25:21;145010.88;;;16.62;78.84
1776;BME280;885;42.626;23.200;2023-10-19T09:27:48;144646.34;;;16.65;79.28
1776;BME280;885;42.626;23.200;2023-10-19T09:30:15;141994.25;;;16.46;74.27
1776;BME280;885;42.626;23.200;2023-10-19T09:32:47;143933.69;;;16.80;77.93
1776;BME280;885;42.626;23.200;2023-10-19T09:35:14;143235.84;;;17.00;75.11
1776;BME280;885;42.626;23.200;2023-10-19T09:37:42;141330.91;;;16.82;72.65
1776;BME280;885;42.626;23.200;2023-10-19T09:40:09;141755.19;;;17.05;74.06
1776;BME280;885;42.626;23.200;2023-10-19T09:42:40;141408.84;;;17.16;73.49
1776;BME280;885;42.626;23.200;2023-10-19T09:45:11;141805.72;;;17.27;74.20
1776;BME280;885;42.626;23.200;2023-10-19T09:47:41;141827.53;;;17.36;74.32
1776;BME280;885;42.626;23.200;2023-10-19T09:50:11;143028.72;;;17.72;73.76
1776;BME280;885;42.626;23.200;2023-10-19T09:52:39;142723.69;;;18.02;71.95
1776;BME280;885;42.626;23.200;2023-10-19T09:55:09;141179.00;;;17.79;70.95
1776;BME280;885;42.626;23.200;2023-10-19T09:57:47;140385.09;;;17.58;71.98
1776;BME280;885;42.626;23.200;2023-10-19T10:00:15;139221.44;;;17.38;72.51
1776;BME280;885;42.626;23.200;2023-10-19T10:02:49;138424.56;;;17.15;72.65
1776;BME280;885;42.626;23.200;2023-10-19T10:05:47;139220.28;;;17.37;72.59
1776;BME280;885;42.626;23.200;2023-10-19T10:08:30;139698.16;;;17.84;71.07
1776;BME280;885;42.626;23.200;2023-10-19T10:10:57;140877.72;;;18.11;71.38
1776;BME280;885;42.626;23.200;2023-10-19T10:13:38;139760.31;;;18.12;68.88
1776;BME280;885;42.626;23.200;2023-10-19T10:16:07;140182.28;;;18.34;69.99
1776;BME280;885;42.626;23.200;2023-10-19T10:18:35;137884.84;;;18.07;66.84
1776;BME280;885;42.626;23.200;2023-10-19T10:21:05;140264.00;;;18.70;67.98
1776;BME280;885;42.626;23.200;2023-10-19T10:23:40;140728.59;;;19.10;65.75
1776;BME280;885;42.626;23.200;2023-10-19T10:26:08;139635.41;;;19.23;64.58
1776;BME280;885;42.626;23.200;2023-10-19T10:28:35;138878.78;;;19.19;64.56
1776;BME280;885;42.626;23.200;2023-10-19T10:31:13;138923.75;;;19.39;64.13
1776;BME280;885;42.626;23.200;2023-10-19T10:33:45;138167.16;;;19.35;63.41
1776;BME280;885;42.626;23.200;2023-10-19T10:36:12;138191.72;;;19.46;62.84
1776;BME280;885;42.626;23.200;2023-10-19T10:38:40;138626.00;;;19.73;62.87
1776;BME280;885;42.626;23.200;2023-10-19T10:41:07;138711.06;;;20.11;60.68
1776;BME280;885;42.626;23.200;2023-10-19T10:43:50;138383.75;;;20.32;60.08
1776;BME280;885;42.626;23.200;2023-10-19T10:46:20;138078.44;;;20.64;60.09
1776;BME280;885;42.626;23.200;2023-10-19T10:48:47;135797.88;;;20.48;59.17
1776;BME280;885;42.626;23.200;2023-10-19T10:51:16;134655.75;;;20.39;60.16
1776;BME280;885;42.626;23.200;2023-10-19T10:53:42;135104.94;;;20.74;58.23
1776;BME280;885;42.626;23.200;2023-10-19T10:56:09;133954.06;;;20.61;59.08
1776;BME280;885;42.626;23.200;2023-10-19T10:58:37;131215.28;;;20.03;59.73
1776;BME280;885;42.626;23.200;2023-10-19T11:01:04;132778.28;;;20.35;61.13
1776;BME280;885;42.626;23.200;2023-10-19T11:03:33;134405.09;;;20.96;58.80
1776;BME280;885;42.626;23.200;2023-10-19T11:06:06;134899.00;;;21.52;56.42
1776;BME280;885;42.626;23.200;2023-10-19T11:08:35;134201.34;;;21.76;55.86
1776;BME280;885;42.626;23.200;2023-10-19T11:11:03;130023.41;;;21.49;54.14
1776;BME280;885;42.626;23.200;2023-10-19T11:13:31;129656.41;;;21.52;54.90
1776;BME280;885;42.626;23.200;2023-10-19T11:16:02;130867.88;;;21.94;54.73
1776;BME280;885;42.626;23.200;2023-10-19T11:18:33;130126.97;;;21.98;53.52
1776;BME280;885;42.626;23.200;2023-10-19T11:21:05;130162.53;;;22.16;53.99
1776;BME280;885;42.626;23.200;2023-10-19T11:23:42;128232.59;;;21.88;53.65
1776;BME280;885;42.626;23.200;2023-10-19T11:26:09;127066.63;;;21.67;54.38
1776;BME280;885;42.626;23.200;2023-10-19T11:28:36;128671.06;;;22.19;52.64
1776;BME280;885;42.626;23.200;2023-10-19T11:31:16;129078.88;;;22.35;53.00
1776;BME280;885;42.626;23.200;2023-10-19T11:33:46;128732.06;;;22.49;52.50
1776;BME280;885;42.626;23.200;2023-10-19T11:36:16;127575.00;;;22.33;52.45
1776;BME280;885;42.626;23.200;2023-10-19T11:38:44;125597.50;;;21.80;54.48
1776;BME280;885;42.626;23.200;2023-10-19T11:41:12;126769.88;;;22.05;54.88
1776;BME280;885;42.626;23.200;2023-10-19T11:43:40;124853.38;;;21.82;53.27
1776;BME280;885;42.626;23.200;2023-10-19T11:46:08;126424.94;;;22.20;53.46
1776;BME280;885;42.626;23.200;2023-10-19T11:48:36;128013.38;;;22.64;52.55
1776;BME280;885;42.626;23.200;2023-10-19T11:51:04;127630.34;;;22.60;53.06
1776;BME280;885;42.626;23.200;2023-10-19T11:53:32;127259.69;;;22.62;51.93
1776;BME280;885;42.626;23.200;2023-10-19T11:56:01;127249.41;;;22.57;53.40
1776;BME280;885;42.626;23.200;2023-10-19T11:58:29;126901.22;;;22.70;51.92
1776;BME280;885;42.626;23.200;2023-10-19T12:00:58;123345.50;;;21.76;54.46
1776;BME280;885;42.626;23.200;2023-10-19T12:03:24;126081.88;;;22.35;54.19
1776;BME280;885;42.626;23.200;2023-10-19T12:05:51;122520.13;;;21.36;57.96
1776;BME280;885;42.626;23.200;2023-10-19T12:08:21;124129.22;;;21.94;54.94
1776;BME280;885;42.626;23.200;2023-10-19T12:10:49;122995.38;;;21.88;53.41
1776;BME280;885;42.626;23.200;2023-10-19T12:13:16;126129.47;;;22.59;53.56
1776;BME280;885;42.626;23.200;2023-10-19T12:15:43;125781.09;;;22.72;51.82
1776;BME280;885;42.626;23.200;2023-10-19T12:18:17;124634.22;;;22.60;51.05
1776;BME280;885;42.626;23.200;2023-10-19T12:20:44;125031.81;;;22.72;51.59
1776;BME280;885;42.626;23.200;2023-10-19T12:23:11;127019.34;;;23.28;50.34
1776;BME280;885;42.626;23.200;2023-10-19T12:25:39;127420.06;;;23.41;50.00
1776;BME280;885;42.626;23.200;2023-10-19T12:28:07;125498.97;;;23.18;50.18
1776;BME280;885;42.626;23.200;2023-10-19T12:30:40;125521.06;;;23.29;49.57
1776;BME280;885;42.626;23.200;2023-10-19T12:33:06;120445.28;;;22.23;51.08
1776;BME280;885;42.626;23.200;2023-10-19T12:35:36;121241.69;;;22.48;50.92
1776;BME280;885;42.626;23.200;2023-10-19T12:38:11;123186.81;;;22.86;51.11
1776;BME280;885;42.626;23.200;2023-10-19T12:40:47;122827.06;;;22.94;49.81
1776;BME280;885;42.626;23.200;2023-10-19T12:43:14;123984.59;;;23.11;50.99
1776;BME280;885;42.626;23.200;2023-10-19T12:45:44;125201.31;;;23.57;48.92
1776;BME280;885;42.626;23.200;2023-10-19T12:48:16;125610.69;;;23.74;48.59
1776;BME280;885;42.626;23.200;2023-10-19T12:50:43;126807.81;;;24.09;48.23
1776;BME280;885;42.626;23.200;2023-10-19T12:53:10;125668.03;;;24.03;47.82
1776;BME280;885;42.626;23.200;2023-10-19T12:55:37;126067.81;;;24.15;47.83
1776;BME280;885;42.626;23.200;2023-10-19T12:58:06;125705.31;;;24.21;47.47
1776;BME280;885;42.626;23.200;2023-10-19T13:00:35;126511.25;;;24.49;47.49
1776;BME280;885;42.626;23.200;2023-10-19T13:03:10;126130.41;;;24.46;47.63
1776;BME280;885;42.626;23.200;2023-10-19T13:05:41;120299.47;;;23.42;48.13
1776;BME280;885;42.626;23.200;2023-10-19T13:08:10;119840.44;;;22.98;51.38
1776;BME280;885;42.626;23.200;2023-10-19T13:10:39;120257.09;;;23.20;50.09
1776;BME280;885;42.626;23.200;2023-10-19T13:13:09;123397.16;;;23.93;48.79
1776;BME280;885;42.626;23.200;2023-10-19T13:15:39;126566.97;;;24.76;47.38
1776;BME280;885;42.626;23.200;2023-10-19T13:18:08;123832.81;;;24.24;47.84
1776;BME280;885;42.626;23.200;2023-10-19T13:20:37;125391.00;;;24.52;47.92